createdAt,value
2023-03-31T00:00:02.984Z,0.77
2023-03-31T00:01:02.936Z,0.78
2023-03-31T00:02:02.975Z,0.76
2023-03-31T00:03:03.174Z,0.77
2023-03-31T00:04:03.273Z,0.78
2023-03-31T00:05:03.108Z,0.76
2023-03-31T00:06:03.415Z,0.77
2023-03-31T00:07:03.164Z,0.78
2023-03-31T00:08:03.190Z,0.77
2023-03-31T00:09:03.204Z,0.78
2023-03-31T00:10:16.539Z,0.77
2023-03-31T00:11:04.246Z,0.77
2023-03-31T00:12:03.211Z,0.77
2023-03-31T00:13:03.195Z,0.77
2023-03-31T00:14:03.187Z,0.77
2023-03-31T00:15:03.175Z,0.77
2023-03-31T00:16:03.251Z,0.76
2023-03-31T00:17:03.252Z,0.77
2023-03-31T00:18:03.163Z,0.77
2023-03-31T00:19:03.113Z,0.75
2023-03-31T00:20:03.104Z,0.77
2023-03-31T00:21:03.119Z,0.76
2023-03-31T00:22:03.175Z,0.76
2023-03-31T00:23:03.201Z,0.76
2023-03-31T00:24:03.247Z,0.76
2023-03-31T00:25:03.274Z,0.74
2023-03-31T00:26:03.501Z,0.75
2023-03-31T00:27:03.341Z,0.76
2023-03-31T00:28:03.373Z,0.74
2023-03-31T00:29:03.402Z,0.75
2023-03-31T00:30:03.444Z,0.75
2023-03-31T00:31:03.579Z,0.74
2023-03-31T00:32:03.600Z,0.74
2023-03-31T00:33:03.644Z,0.74
2023-03-31T00:34:03.595Z,0.74
2023-03-31T00:35:03.631Z,0.74
2023-03-31T00:36:03.987Z,0.74
2023-03-31T00:37:03.718Z,0.74
2023-03-31T00:38:03.743Z,0.72
2023-03-31T00:39:03.768Z,0.73
2023-03-31T00:40:03.810Z,0.75
2023-03-31T00:41:03.836Z,0.74
2023-03-31T00:42:03.893Z,0.73
2023-03-31T00:43:03.921Z,0.71
2023-03-31T00:44:03.949Z,0.74
2023-03-31T00:45:03.985Z,0.71
2023-03-31T00:46:04.212Z,0.73
2023-03-31T00:47:04.058Z,0.73
2023-03-31T00:48:04.204Z,0.73
2023-03-31T00:49:04.139Z,0.73
2023-03-31T00:50:04.213Z,0.73
2023-03-31T00:51:04.227Z,0.73
2023-03-31T00:52:04.242Z,0.72
2023-03-31T00:53:04.292Z,0.71
2023-03-31T00:54:04.402Z,0.71
2023-03-31T00:55:04.403Z,0.72
2023-03-31T00:56:04.722Z,0.71
2023-03-31T00:57:04.460Z,0.70
2023-03-31T00:58:04.482Z,0.71
2023-03-31T00:59:04.734Z,0.71
2023-03-31T01:00:04.558Z,0.69
2023-03-31T01:01:04.626Z,0.71
2023-03-31T01:02:04.659Z,0.69
2023-03-31T01:03:04.760Z,0.72
2023-03-31T01:04:04.847Z,0.70
2023-03-31T01:05:04.739Z,0.70
2023-03-31T01:06:04.989Z,0.70
2023-03-31T01:07:04.827Z,0.69
2023-03-31T01:08:04.853Z,0.70
2023-03-31T01:09:04.906Z,0.70
2023-03-31T01:10:04.934Z,0.70
2023-03-31T01:11:04.978Z,0.70
2023-03-31T01:12:05.014Z,0.69
2023-03-31T01:13:05.073Z,0.70
2023-03-31T01:14:05.100Z,0.69
2023-03-31T01:15:05.153Z,0.69
2023-03-31T01:16:05.284Z,0.69
2023-03-31T01:17:05.522Z,0.69
2023-03-31T01:18:05.287Z,0.69
2023-03-31T01:19:05.287Z,0.68
2023-03-31T01:20:05.352Z,0.69
2023-03-31T01:21:05.373Z,0.69
2023-03-31T01:22:05.428Z,0.70
2023-03-31T01:23:05.522Z,0.68
2023-03-31T01:24:05.503Z,0.68
2023-03-31T01:25:05.534Z,0.69
2023-03-31T01:26:05.720Z,0.69
2023-03-31T01:27:05.615Z,0.68
2023-03-31T01:28:05.654Z,0.68
2023-03-31T01:29:05.696Z,0.69
2023-03-31T01:30:05.726Z,0.69
2023-03-31T01:31:05.889Z,0.68
2023-03-31T01:32:05.806Z,0.68
2023-03-31T01:33:05.923Z,0.69
2023-03-31T01:34:05.879Z,0.67
2023-03-31T01:35:05.919Z,0.68
2023-03-31T01:36:06.149Z,0.67
2023-03-31T01:37:06.002Z,0.67
2023-03-31T01:38:06.041Z,0.66
2023-03-31T01:39:06.083Z,0.67
2023-03-31T01:40:06.104Z,0.67
2023-03-31T01:41:06.137Z,0.66
2023-03-31T01:42:06.188Z,0.65
2023-03-31T01:43:06.222Z,0.64
2023-03-31T01:44:06.262Z,0.65
2023-03-31T01:45:06.288Z,0.66
2023-03-31T01:46:06.451Z,0.66
2023-03-31T01:47:06.351Z,0.65
2023-03-31T01:48:06.419Z,0.64
2023-03-31T01:49:06.422Z,0.64
2023-03-31T01:50:06.474Z,0.65
2023-03-31T01:51:06.492Z,0.63
2023-03-31T01:52:06.555Z,0.65
2023-03-31T01:53:06.543Z,0.65
2023-03-31T01:54:06.583Z,0.64
2023-03-31T01:55:06.621Z,0.63
2023-03-31T01:56:06.961Z,0.62
2023-03-31T01:57:06.705Z,0.64
2023-03-31T01:58:06.721Z,0.63
2023-03-31T01:59:06.746Z,0.63
2023-03-31T02:00:06.774Z,0.63
2023-03-31T02:01:06.820Z,0.63
2023-03-31T02:02:06.863Z,0.63
2023-03-31T02:03:06.970Z,0.64
2023-03-31T02:04:06.917Z,0.63
2023-03-31T02:05:06.953Z,0.63
2023-03-31T02:06:07.498Z,0.62
2023-03-31T02:07:07.039Z,0.62
2023-03-31T02:08:07.073Z,0.62
2023-03-31T02:09:07.099Z,0.62
2023-03-31T02:10:07.158Z,0.62
2023-03-31T02:11:07.176Z,0.62
2023-03-31T02:12:07.203Z,0.62
2023-03-31T02:13:07.246Z,0.62
2023-03-31T02:14:07.270Z,0.60
2023-03-31T02:15:07.311Z,0.62
2023-03-31T02:16:07.537Z,0.62
2023-03-31T02:17:07.391Z,0.61
2023-03-31T02:18:07.408Z,0.62
2023-03-31T02:19:07.437Z,0.62
2023-03-31T02:20:07.496Z,0.61
2023-03-31T02:21:07.496Z,0.61
2023-03-31T02:22:07.538Z,0.60
2023-03-31T02:23:07.570Z,0.61
2023-03-31T02:24:07.593Z,0.61
2023-03-31T02:25:07.644Z,0.60
2023-03-31T02:26:07.976Z,0.61
2023-03-31T02:27:07.696Z,0.61
2023-03-31T02:28:07.734Z,0.62
2023-03-31T02:29:07.757Z,0.61
2023-03-31T02:30:07.788Z,0.60
2023-03-31T02:31:07.871Z,0.61
2023-03-31T02:32:07.852Z,0.60
2023-03-31T02:33:07.893Z,0.60
2023-03-31T02:34:07.911Z,0.59
2023-03-31T02:35:07.953Z,0.60
2023-03-31T02:37:08.026Z,0.60
2023-03-31T02:38:08.067Z,0.59
2023-03-31T02:39:08.101Z,0.59
2023-03-31T02:40:08.144Z,0.60
2023-03-31T02:41:08.177Z,0.60
2023-03-31T02:42:08.202Z,0.59
2023-03-31T02:43:08.248Z,0.59
2023-03-31T02:44:08.283Z,0.60
2023-03-31T02:45:08.410Z,0.60
2023-03-31T02:46:08.738Z,0.60
2023-03-31T02:47:08.410Z,0.59
2023-03-31T02:48:08.430Z,0.58
2023-03-31T02:49:08.470Z,0.60
2023-03-31T02:50:08.512Z,0.59
2023-03-31T02:51:08.676Z,0.59
2023-03-31T02:52:08.585Z,0.59
2023-03-31T02:53:08.638Z,0.58
2023-03-31T02:54:08.672Z,0.59
2023-03-31T02:55:08.710Z,0.59
2023-03-31T02:56:08.753Z,0.59
2023-03-31T02:57:08.849Z,0.59
2023-03-31T02:58:08.828Z,0.57
2023-03-31T02:59:08.854Z,0.58
2023-03-31T03:00:08.896Z,0.58
2023-03-31T03:01:08.974Z,0.58
2023-03-31T03:02:09.033Z,0.58
2023-03-31T03:03:09.241Z,0.58
2023-03-31T03:04:09.026Z,0.59
2023-03-31T03:05:09.068Z,0.59
2023-03-31T03:06:09.241Z,0.58
2023-03-31T03:07:09.142Z,0.59
2023-03-31T03:08:09.164Z,0.59
2023-03-31T03:09:09.206Z,0.58
2023-03-31T03:10:09.240Z,0.58
2023-03-31T03:11:09.290Z,0.58
2023-03-31T03:12:09.313Z,0.59
2023-03-31T03:13:09.347Z,0.57
2023-03-31T03:14:09.431Z,0.56
2023-03-31T03:15:09.422Z,0.57
2023-03-31T03:16:09.501Z,0.58
2023-03-31T03:17:09.509Z,0.57
2023-03-31T03:18:09.589Z,0.57
2023-03-31T03:19:09.561Z,0.58
2023-03-31T03:20:09.604Z,0.56
2023-03-31T03:21:09.630Z,0.57
2023-03-31T03:22:09.683Z,0.56
2023-03-31T03:23:09.717Z,0.56
2023-03-31T03:24:09.735Z,0.57
2023-03-31T03:25:09.781Z,0.57
2023-03-31T03:26:09.805Z,0.57
2023-03-31T03:27:09.835Z,0.56
2023-03-31T03:28:09.870Z,0.55
2023-03-31T03:29:09.911Z,0.57
2023-03-31T03:30:09.927Z,0.56
2023-03-31T03:31:10.023Z,0.57
2023-03-31T03:32:09.999Z,0.57
2023-03-31T03:33:10.159Z,0.56
2023-03-31T03:34:10.056Z,0.56
2023-03-31T03:35:10.083Z,0.56
2023-03-31T03:36:10.264Z,0.56
2023-03-31T03:37:10.177Z,0.57
2023-03-31T03:38:10.193Z,0.57
2023-03-31T03:39:10.226Z,0.56
2023-03-31T03:40:10.250Z,0.57
2023-03-31T03:41:10.293Z,0.55
2023-03-31T03:42:10.316Z,0.56
2023-03-31T03:43:10.344Z,0.55
2023-03-31T03:44:10.390Z,0.56
2023-03-31T03:45:10.403Z,0.55
2023-03-31T03:46:10.445Z,0.56
2023-03-31T03:47:10.486Z,0.54
2023-03-31T03:48:10.562Z,0.55
2023-03-31T03:49:10.507Z,0.54
2023-03-31T03:50:10.548Z,0.55
2023-03-31T03:51:10.573Z,0.54
2023-03-31T03:52:10.795Z,0.55
2023-03-31T03:53:10.640Z,0.55
2023-03-31T03:54:10.674Z,0.55
2023-03-31T03:55:10.688Z,0.54
2023-03-31T03:56:10.727Z,0.53
2023-03-31T03:57:10.855Z,0.55
2023-03-31T03:58:10.793Z,0.55
2023-03-31T03:59:10.825Z,0.55
2023-03-31T04:00:10.861Z,0.54
2023-03-31T04:01:10.893Z,0.54
2023-03-31T04:02:10.967Z,0.54
2023-03-31T04:03:11.022Z,0.53
2023-03-31T04:04:11.000Z,0.54
2023-03-31T04:05:11.052Z,0.54
2023-03-31T04:06:11.043Z,0.53
2023-03-31T04:07:11.083Z,0.53
2023-03-31T04:08:11.114Z,0.54
2023-03-31T04:09:11.146Z,0.54
2023-03-31T04:10:11.165Z,0.54
2023-03-31T04:11:11.198Z,0.54
2023-03-31T04:12:11.241Z,0.53
2023-03-31T04:13:11.265Z,0.53
2023-03-31T04:14:11.300Z,0.54
2023-03-31T04:15:11.341Z,0.53
2023-03-31T04:16:11.398Z,0.53
2023-03-31T04:17:11.396Z,0.54
2023-03-31T04:18:12.811Z,0.54
2023-03-31T04:19:11.397Z,0.54
2023-03-31T04:20:11.387Z,0.54
2023-03-31T04:21:11.368Z,0.54
2023-03-31T04:22:11.351Z,0.54
2023-03-31T04:23:11.334Z,0.53
2023-03-31T04:24:11.310Z,0.53
2023-03-31T04:25:11.289Z,0.53
2023-03-31T04:26:11.270Z,0.53
2023-03-31T04:27:11.283Z,0.53
2023-03-31T04:28:11.237Z,0.53
2023-03-31T04:29:11.254Z,0.53
2023-03-31T04:30:11.195Z,0.52
2023-03-31T04:31:11.201Z,0.52
2023-03-31T04:32:11.197Z,0.52
2023-03-31T04:33:11.214Z,0.51
2023-03-31T04:34:11.149Z,0.53
2023-03-31T04:35:11.132Z,0.52
2023-03-31T04:36:11.132Z,0.52
2023-03-31T04:37:11.122Z,0.52
2023-03-31T04:38:11.101Z,0.52
2023-03-31T04:39:11.082Z,0.53
2023-03-31T04:40:11.061Z,0.53
2023-03-31T04:41:11.044Z,0.51
2023-03-31T04:42:11.037Z,0.52
2023-03-31T04:43:11.014Z,0.51
2023-03-31T04:44:10.999Z,0.52
2023-03-31T04:45:10.982Z,0.52
2023-03-31T04:46:11.007Z,0.52
2023-03-31T04:47:10.959Z,0.52
2023-03-31T04:48:10.945Z,0.51
2023-03-31T04:49:10.949Z,0.52
2023-03-31T04:50:13.578Z,0.52
2023-03-31T04:51:10.917Z,0.52
2023-03-31T04:52:10.914Z,0.52
2023-03-31T04:53:10.914Z,0.52
2023-03-31T04:54:10.884Z,0.51
2023-03-31T04:55:10.894Z,0.52
2023-03-31T04:56:10.861Z,0.51
2023-03-31T04:57:10.880Z,0.52
2023-03-31T04:58:10.850Z,0.51
2023-03-31T04:59:10.843Z,0.52
2023-03-31T05:00:10.827Z,0.51
2023-03-31T05:01:10.846Z,0.51
2023-03-31T05:02:10.813Z,0.51
2023-03-31T05:03:10.875Z,0.52
2023-03-31T05:04:10.767Z,0.51
2023-03-31T05:05:10.762Z,0.50
2023-03-31T05:06:10.746Z,0.52
2023-03-31T05:07:10.735Z,0.51
2023-03-31T05:08:10.711Z,0.51
2023-03-31T05:09:10.708Z,0.51
2023-03-31T05:10:10.676Z,0.52
2023-03-31T05:11:10.671Z,0.51
2023-03-31T05:12:10.654Z,0.51
2023-03-31T05:13:10.702Z,0.51
2023-03-31T05:14:10.727Z,0.51
2023-03-31T05:15:10.792Z,0.52
2023-03-31T05:16:10.874Z,0.51
2023-03-31T05:17:10.857Z,0.51
2023-03-31T05:18:10.894Z,0.50
2023-03-31T05:19:10.908Z,0.52
2023-03-31T05:20:10.933Z,0.51
2023-03-31T05:21:10.988Z,0.51
2023-03-31T05:22:11.010Z,0.51
2023-03-31T05:23:11.039Z,0.54
2023-03-31T05:24:11.080Z,0.55
2023-03-31T05:25:11.110Z,0.52
2023-03-31T05:26:11.151Z,0.52
2023-03-31T05:27:11.190Z,0.60
2023-03-31T05:28:11.220Z,0.57
2023-03-31T05:29:11.243Z,0.57
2023-03-31T05:30:11.281Z,0.56
2023-03-31T05:31:11.337Z,0.55
2023-03-31T05:32:11.410Z,0.55
2023-03-31T05:33:11.370Z,0.55
2023-03-31T05:34:11.398Z,0.55
2023-03-31T05:35:11.436Z,0.55
2023-03-31T05:36:11.504Z,0.55
2023-03-31T05:37:11.488Z,0.54
2023-03-31T05:38:11.516Z,0.55
2023-03-31T05:39:11.562Z,0.56
2023-03-31T05:40:11.602Z,0.55
2023-03-31T05:41:11.619Z,0.54
2023-03-31T05:42:11.655Z,0.56
2023-03-31T05:43:11.687Z,0.55
2023-03-31T05:44:11.721Z,0.54
2023-03-31T05:45:11.746Z,0.55
2023-03-31T05:46:12.112Z,0.55
2023-03-31T05:47:11.846Z,0.55
2023-03-31T05:48:11.867Z,0.54
2023-03-31T05:49:11.871Z,0.56
2023-03-31T05:50:13.346Z,0.54
2023-03-31T05:51:11.870Z,0.54
2023-03-31T05:52:11.854Z,0.56
2023-03-31T05:53:11.864Z,0.55
2023-03-31T05:54:11.814Z,0.55
2023-03-31T05:55:11.799Z,0.55
2023-03-31T05:56:11.778Z,0.55
2023-03-31T05:57:11.869Z,0.55
2023-03-31T05:58:11.752Z,0.55
2023-03-31T05:59:11.735Z,0.55
2023-03-31T06:00:11.709Z,0.55
2023-03-31T06:01:12.027Z,0.55
2023-03-31T06:02:11.674Z,0.54
2023-03-31T06:03:11.712Z,0.54
2023-03-31T06:04:11.665Z,0.54
2023-03-31T06:05:11.609Z,0.54
2023-03-31T06:06:11.584Z,0.53
2023-03-31T06:07:11.576Z,0.53
2023-03-31T06:08:11.550Z,0.54
2023-03-31T06:09:11.530Z,0.54
2023-03-31T06:10:11.510Z,0.54
2023-03-31T06:11:11.490Z,0.55
2023-03-31T06:12:11.482Z,0.54
2023-03-31T06:13:11.479Z,0.53
2023-03-31T06:14:11.448Z,0.53
2023-03-31T06:15:11.420Z,0.53
2023-03-31T06:16:11.512Z,0.52
2023-03-31T06:17:11.393Z,0.53
2023-03-31T06:18:11.438Z,0.52
2023-03-31T06:19:11.375Z,0.53
2023-03-31T06:20:26.640Z,0.52
2023-03-31T06:21:12.336Z,0.52
2023-03-31T06:22:11.311Z,0.53
2023-03-31T06:23:12.261Z,0.54
2023-03-31T06:24:11.337Z,0.56
2023-03-31T06:25:11.254Z,0.62
2023-03-31T06:26:11.245Z,0.59
2023-03-31T06:27:11.228Z,0.59
2023-03-31T06:28:11.216Z,0.60
2023-03-31T06:29:11.187Z,0.60
2023-03-31T06:30:11.166Z,0.60
2023-03-31T06:31:11.206Z,0.60
2023-03-31T06:32:11.152Z,0.61
2023-03-31T06:33:11.155Z,0.61
2023-03-31T06:34:11.151Z,0.62
2023-03-31T06:35:11.163Z,0.63
2023-03-31T06:36:11.216Z,0.62
2023-03-31T06:37:11.203Z,0.61
2023-03-31T06:38:11.235Z,0.61
2023-03-31T06:39:11.473Z,0.62
2023-03-31T06:40:11.278Z,0.62
2023-03-31T06:41:11.337Z,0.62
2023-03-31T06:42:11.337Z,0.62
2023-03-31T06:43:11.382Z,0.62
2023-03-31T06:44:11.390Z,0.61
2023-03-31T06:45:11.408Z,0.61
2023-03-31T06:46:11.684Z,0.61
2023-03-31T06:47:11.463Z,0.61
2023-03-31T06:48:11.506Z,0.62
2023-03-31T06:49:11.543Z,0.60
2023-03-31T06:50:11.572Z,0.60
2023-03-31T06:51:11.599Z,0.60
2023-03-31T06:52:11.650Z,0.60
2023-03-31T06:53:11.733Z,0.58
2023-03-31T06:54:11.666Z,0.59
2023-03-31T06:55:11.689Z,0.59
2023-03-31T06:56:11.715Z,0.59
2023-03-31T06:57:11.924Z,0.58
2023-03-31T06:58:11.764Z,0.60
2023-03-31T06:59:11.816Z,0.59
2023-03-31T07:00:11.825Z,0.58
2023-03-31T07:01:12.457Z,0.59
2023-03-31T07:02:11.906Z,0.60
2023-03-31T07:03:11.956Z,0.60
2023-03-31T07:04:11.932Z,0.60
2023-03-31T07:05:11.965Z,0.59
2023-03-31T07:06:12.012Z,0.60
2023-03-31T07:07:12.024Z,0.59
2023-03-31T07:08:12.041Z,0.59
2023-03-31T07:09:12.072Z,0.58
2023-03-31T07:10:12.144Z,0.59
2023-03-31T07:11:12.110Z,0.59
2023-03-31T07:12:12.164Z,0.60
2023-03-31T07:13:12.175Z,0.58
2023-03-31T07:14:12.235Z,0.59
2023-03-31T07:15:12.221Z,0.59
2023-03-31T07:16:12.271Z,0.60
2023-03-31T07:17:12.258Z,0.59
2023-03-31T07:18:12.316Z,0.59
2023-03-31T07:19:12.320Z,0.58
2023-03-31T07:20:12.341Z,0.58
2023-03-31T07:21:12.490Z,0.59
2023-03-31T07:22:12.394Z,0.59
2023-03-31T07:23:12.420Z,0.59
2023-03-31T07:24:12.447Z,0.58
2023-03-31T07:25:12.471Z,0.58
2023-03-31T07:26:12.493Z,0.58
2023-03-31T07:27:12.511Z,0.59
2023-03-31T07:28:12.537Z,0.57
2023-03-31T07:29:12.568Z,0.57
2023-03-31T07:30:12.589Z,0.58
2023-03-31T07:31:12.639Z,0.58
2023-03-31T07:32:12.814Z,0.57
2023-03-31T07:33:12.750Z,0.58
2023-03-31T07:34:12.728Z,0.58
2023-03-31T07:35:12.756Z,0.58
2023-03-31T07:36:14.198Z,0.58
2023-03-31T07:37:12.800Z,0.57
2023-03-31T07:38:12.826Z,0.57
2023-03-31T07:39:12.864Z,0.57
2023-03-31T07:40:12.907Z,0.56
2023-03-31T07:41:12.980Z,0.58
2023-03-31T07:42:12.958Z,0.58
2023-03-31T07:43:13.008Z,0.57
2023-03-31T07:44:13.061Z,0.57
2023-03-31T07:45:13.035Z,0.56
2023-03-31T07:46:13.124Z,0.57
2023-03-31T07:47:13.108Z,0.56
2023-03-31T07:48:13.171Z,0.57
2023-03-31T07:49:13.160Z,0.57
2023-03-31T07:50:13.190Z,0.57
2023-03-31T07:51:13.224Z,0.54
2023-03-31T07:52:13.260Z,0.56
2023-03-31T07:53:13.288Z,0.57
2023-03-31T07:54:13.325Z,0.55
2023-03-31T07:55:13.366Z,0.56
2023-03-31T07:56:13.386Z,0.55
2023-03-31T07:57:13.449Z,0.54
2023-03-31T07:58:13.439Z,0.56
2023-03-31T07:59:13.469Z,0.56
2023-03-31T08:00:13.481Z,0.56
2023-03-31T08:01:13.512Z,0.55
2023-03-31T08:02:13.556Z,0.55
2023-03-31T08:03:13.595Z,0.56
2023-03-31T08:04:14.392Z,0.55
2023-03-31T08:05:13.605Z,0.54
2023-03-31T08:06:13.628Z,0.54
2023-03-31T08:07:13.638Z,0.56
2023-03-31T08:08:13.650Z,0.56
2023-03-31T08:09:13.665Z,0.58
2023-03-31T08:10:13.668Z,0.58
2023-03-31T08:11:13.657Z,0.59
2023-03-31T08:12:13.672Z,0.60
2023-03-31T08:13:13.655Z,0.62
2023-03-31T08:14:13.698Z,0.60
2023-03-31T08:15:13.659Z,0.59
2023-03-31T08:16:13.708Z,0.55
2023-03-31T08:17:13.624Z,0.52
2023-03-31T08:18:13.651Z,0.50
2023-03-31T08:19:13.606Z,0.52
2023-03-31T08:20:13.636Z,0.52
2023-03-31T08:21:13.606Z,0.53
2023-03-31T08:22:13.593Z,0.54
2023-03-31T08:23:14.551Z,0.55
2023-03-31T08:24:13.527Z,0.55
2023-03-31T08:25:13.514Z,0.55
2023-03-31T08:26:16.425Z,0.55
2023-03-31T08:27:13.464Z,0.55
2023-03-31T08:28:13.436Z,0.55
2023-03-31T08:29:14.298Z,0.56
2023-03-31T08:30:13.376Z,0.58
2023-03-31T08:31:13.364Z,0.57
2023-03-31T08:32:13.329Z,0.40
2023-03-31T08:33:13.287Z,0.41
2023-03-31T08:34:13.264Z,0.44
2023-03-31T08:35:13.265Z,0.46
2023-03-31T08:36:13.281Z,0.45
2023-03-31T08:37:13.874Z,0.55
2023-03-31T08:38:13.209Z,0.60
2023-03-31T08:39:13.206Z,0.66
2023-03-31T08:40:13.196Z,0.67
2023-03-31T08:41:13.170Z,0.68
2023-03-31T08:42:15.960Z,0.69
2023-03-31T08:43:13.136Z,0.72
2023-03-31T08:44:13.104Z,0.76
2023-03-31T08:45:13.078Z,0.77
2023-03-31T08:46:13.097Z,0.79
2023-03-31T08:47:13.039Z,0.83
2023-03-31T08:48:13.047Z,0.88
2023-03-31T08:49:12.985Z,0.90
2023-03-31T08:50:12.958Z,0.92
2023-03-31T08:51:12.935Z,0.95
2023-03-31T08:52:12.876Z,0.98
2023-03-31T08:53:12.881Z,1.06
2023-03-31T08:54:14.998Z,1.08
2023-03-31T08:55:12.813Z,1.08
2023-03-31T08:56:12.837Z,1.09
2023-03-31T08:57:12.936Z,1.12
2023-03-31T08:58:13.387Z,1.18
2023-03-31T08:59:12.877Z,1.31
2023-03-31T09:00:12.929Z,1.36
2023-03-31T09:01:12.970Z,1.38
2023-03-31T09:02:13.018Z,1.43
2023-03-31T09:03:13.051Z,1.54
2023-03-31T09:04:13.159Z,1.53
2023-03-31T09:05:13.040Z,1.57
2023-03-31T09:06:13.158Z,1.64
2023-03-31T09:07:13.063Z,1.76
2023-03-31T09:08:13.110Z,1.80
2023-03-31T09:09:13.103Z,1.88
2023-03-31T09:10:13.155Z,1.90
2023-03-31T09:11:13.229Z,1.99
2023-03-31T09:12:13.164Z,2.15
2023-03-31T09:13:13.204Z,2.21
2023-03-31T09:14:13.190Z,2.25
2023-03-31T09:15:15.892Z,2.34
2023-03-31T09:16:16.169Z,2.53
2023-03-31T09:17:13.201Z,2.54
2023-03-31T09:18:13.895Z,2.55
2023-03-31T09:19:13.033Z,2.60
2023-03-31T09:20:13.013Z,2.64
2023-03-31T09:21:12.949Z,2.64
2023-03-31T09:22:12.923Z,2.67
2023-03-31T09:23:12.886Z,2.70
2023-03-31T09:24:12.870Z,2.69
2023-03-31T09:25:13.355Z,2.72
2023-03-31T09:26:12.764Z,2.72
2023-03-31T09:27:12.730Z,2.75
2023-03-31T09:28:12.702Z,2.71
2023-03-31T09:29:12.653Z,2.74
2023-03-31T09:30:12.612Z,2.82
2023-03-31T09:31:12.566Z,2.76
2023-03-31T09:32:12.531Z,2.77
2023-03-31T09:33:12.537Z,2.77
2023-03-31T09:34:12.446Z,2.80
2023-03-31T09:35:12.412Z,2.78
2023-03-31T09:36:12.426Z,2.86
2023-03-31T09:37:12.903Z,2.89
2023-03-31T09:38:12.332Z,2.81
2023-03-31T09:39:12.291Z,2.86
2023-03-31T09:40:12.254Z,2.85
2023-03-31T09:41:12.218Z,2.92
2023-03-31T09:42:12.184Z,2.90
2023-03-31T09:43:12.147Z,2.95
2023-03-31T09:44:12.134Z,2.92
2023-03-31T09:45:12.101Z,2.87
2023-03-31T09:46:12.122Z,2.88
2023-03-31T09:47:12.104Z,2.94
2023-03-31T09:48:12.037Z,2.90
2023-03-31T09:49:11.985Z,2.90
2023-03-31T09:50:11.959Z,2.84
2023-03-31T09:51:11.929Z,2.87
2023-03-31T09:52:14.289Z,2.83
2023-03-31T09:53:11.873Z,2.84
2023-03-31T09:54:11.845Z,2.85
2023-03-31T09:55:11.824Z,2.85
2023-03-31T09:56:11.796Z,2.84
2023-03-31T09:57:11.787Z,2.84
2023-03-31T09:58:11.736Z,2.80
2023-03-31T09:59:11.706Z,2.80
2023-03-31T10:00:11.717Z,2.80
2023-03-31T10:01:11.783Z,2.76
2023-03-31T10:02:11.646Z,2.74
2023-03-31T10:03:11.633Z,2.71
2023-03-31T10:04:13.312Z,2.74
2023-03-31T10:05:11.558Z,2.74
2023-03-31T10:06:11.542Z,2.75
2023-03-31T10:07:11.520Z,2.74
2023-03-31T10:08:11.494Z,2.71
2023-03-31T10:09:11.453Z,2.69
2023-03-31T10:10:12.792Z,2.65
2023-03-31T10:11:11.380Z,2.65
2023-03-31T10:12:11.362Z,2.66
2023-03-31T10:13:11.328Z,2.67
2023-03-31T10:14:11.350Z,2.66
2023-03-31T10:15:11.290Z,2.69
2023-03-31T10:16:11.314Z,2.76
2023-03-31T10:17:11.233Z,3.11
2023-03-31T10:18:11.249Z,3.06
2023-03-31T10:19:11.188Z,5.93
2023-03-31T10:20:11.185Z,7.80
2023-03-31T10:21:11.140Z,8.48
2023-03-31T10:22:11.490Z,18.59
2023-03-31T10:23:11.078Z,12.72
2023-03-31T10:24:11.072Z,12.48
2023-03-31T10:25:11.076Z,12.89
2023-03-31T10:26:10.993Z,17.94
2023-03-31T10:27:10.974Z,13.87
2023-03-31T10:28:10.931Z,9.88
2023-03-31T10:29:10.920Z,11.55
2023-03-31T10:30:10.903Z,11.26
2023-03-31T10:31:11.036Z,11.52
2023-03-31T10:32:10.820Z,10.54
2023-03-31T10:33:21.840Z,8.12
2023-03-31T10:34:11.756Z,8.18
2023-03-31T10:35:10.748Z,8.59
2023-03-31T10:36:10.713Z,8.67
2023-03-31T10:37:10.673Z,7.92
2023-03-31T10:38:10.644Z,7.65
2023-03-31T10:39:10.623Z,6.61
2023-03-31T10:40:10.584Z,7.66
2023-03-31T10:41:10.628Z,7.52
2023-03-31T10:42:10.516Z,8.92
2023-03-31T10:43:10.468Z,8.74
2023-03-31T10:44:11.898Z,9.45
2023-03-31T10:45:10.561Z,10.24
2023-03-31T10:46:11.380Z,10.70
2023-03-31T10:47:10.605Z,10.55
2023-03-31T10:48:10.650Z,12.16
2023-03-31T10:49:10.643Z,12.33
2023-03-31T10:50:10.664Z,12.46
2023-03-31T10:51:11.615Z,12.58
2023-03-31T10:52:10.660Z,13.05
2023-03-31T10:53:10.614Z,13.30
2023-03-31T10:54:10.542Z,13.55
2023-03-31T10:55:10.499Z,14.17
2023-03-31T10:56:10.458Z,15.13
2023-03-31T10:57:10.433Z,14.88
2023-03-31T10:58:10.375Z,14.68
2023-03-31T10:59:10.375Z,15.15
2023-03-31T11:00:10.300Z,17.30
2023-03-31T11:01:10.284Z,16.92
2023-03-31T11:02:10.334Z,16.59
2023-03-31T11:03:10.278Z,15.60
2023-03-31T11:04:10.133Z,10.80
2023-03-31T11:05:10.074Z,9.31
2023-03-31T11:06:10.045Z,8.08
2023-03-31T11:07:10.012Z,7.64
2023-03-31T11:08:09.983Z,7.61
2023-03-31T11:09:10.126Z,7.48
2023-03-31T11:10:09.934Z,7.78
2023-03-31T11:11:09.862Z,8.09
2023-03-31T11:12:09.835Z,8.27
2023-03-31T11:13:09.791Z,8.32
2023-03-31T11:14:09.753Z,8.37
2023-03-31T11:15:09.734Z,8.38
2023-03-31T11:16:09.790Z,8.27
2023-03-31T11:17:09.726Z,8.16
2023-03-31T11:18:09.663Z,8.00
2023-03-31T11:19:09.604Z,8.18
2023-03-31T11:20:09.555Z,7.95
2023-03-31T11:21:09.588Z,7.91
2023-03-31T11:22:09.480Z,7.94
2023-03-31T11:23:09.442Z,7.92
2023-03-31T11:24:09.435Z,7.80
2023-03-31T11:25:09.395Z,7.88
2023-03-31T11:26:09.360Z,7.75
2023-03-31T11:27:09.327Z,7.79
2023-03-31T11:28:09.297Z,7.71
2023-03-31T11:29:09.259Z,7.52
2023-03-31T11:30:09.232Z,7.42
2023-03-31T11:31:09.203Z,7.53
2023-03-31T11:32:09.247Z,7.55
2023-03-31T11:33:09.166Z,7.30
2023-03-31T11:34:09.118Z,7.34
2023-03-31T11:35:09.087Z,7.28
2023-03-31T11:36:09.116Z,7.20
2023-03-31T11:37:09.028Z,7.34
2023-03-31T11:38:09.038Z,7.31
2023-03-31T11:39:09.032Z,7.21
2023-03-31T11:40:08.993Z,7.14
2023-03-31T11:41:09.121Z,6.95
2023-03-31T11:42:08.915Z,7.09
2023-03-31T11:43:08.916Z,7.04
2023-03-31T11:44:08.876Z,6.94
2023-03-31T11:45:08.852Z,6.87
2023-03-31T11:46:09.053Z,6.86
2023-03-31T11:47:08.813Z,6.82
2023-03-31T11:48:08.857Z,6.87
2023-03-31T11:49:08.738Z,6.60
2023-03-31T11:50:08.719Z,6.65
2023-03-31T11:51:08.690Z,6.68
2023-03-31T11:52:08.688Z,6.57
2023-03-31T11:53:08.650Z,6.48
2023-03-31T11:54:08.629Z,6.48
2023-03-31T11:55:08.605Z,6.43
2023-03-31T11:56:08.835Z,6.37
2023-03-31T11:57:08.610Z,6.35
2023-03-31T11:58:08.607Z,6.32
2023-03-31T11:59:08.535Z,6.25
2023-03-31T12:00:08.481Z,6.26
2023-03-31T12:01:08.457Z,6.09
2023-03-31T12:02:08.435Z,6.25
2023-03-31T12:03:08.495Z,5.97
2023-03-31T12:04:08.427Z,6.04
2023-03-31T12:05:08.369Z,5.95
2023-03-31T12:06:08.604Z,5.83
2023-03-31T12:07:08.300Z,5.85
2023-03-31T12:08:08.273Z,5.91
2023-03-31T12:09:08.233Z,5.83
2023-03-31T12:10:08.201Z,5.80
2023-03-31T12:11:08.193Z,5.76
2023-03-31T12:12:08.151Z,5.66
2023-03-31T12:13:08.149Z,5.69
2023-03-31T12:14:08.111Z,5.60
2023-03-31T12:15:08.077Z,5.61
2023-03-31T12:16:08.319Z,5.58
2023-03-31T12:17:08.032Z,5.48
2023-03-31T12:18:07.991Z,5.42
2023-03-31T12:19:07.978Z,5.33
2023-03-31T12:20:07.951Z,5.29
2023-03-31T12:21:07.923Z,5.39
2023-03-31T12:22:07.912Z,5.36
2023-03-31T12:23:07.872Z,5.27
2023-03-31T12:24:08.510Z,5.22
2023-03-31T12:25:07.808Z,5.22
2023-03-31T12:26:08.110Z,5.16
2023-03-31T12:27:07.773Z,5.13
2023-03-31T12:28:07.743Z,5.13
2023-03-31T12:29:07.725Z,5.09
2023-03-31T12:30:07.698Z,5.01
2023-03-31T12:31:07.757Z,4.96
2023-03-31T12:32:07.640Z,4.94
2023-03-31T12:33:07.764Z,4.85
2023-03-31T12:34:07.601Z,4.91
2023-03-31T12:35:07.568Z,4.84
2023-03-31T12:36:07.792Z,4.77
2023-03-31T12:37:07.512Z,4.79
2023-03-31T12:38:07.503Z,4.71
2023-03-31T12:39:07.502Z,4.70
2023-03-31T12:40:07.493Z,4.68
2023-03-31T12:41:07.501Z,4.64
2023-03-31T12:42:07.488Z,4.66
2023-03-31T12:43:07.510Z,4.57
2023-03-31T12:44:07.523Z,4.53
2023-03-31T12:45:07.486Z,4.53
2023-03-31T12:46:07.690Z,4.54
2023-03-31T12:47:07.616Z,4.52
2023-03-31T12:48:07.523Z,4.53
2023-03-31T12:49:07.511Z,4.47
2023-03-31T12:50:07.494Z,4.41
2023-03-31T12:51:07.553Z,4.38
2023-03-31T12:52:07.493Z,4.37
2023-03-31T12:53:07.505Z,4.39
2023-03-31T12:54:07.498Z,4.27
2023-03-31T12:55:07.493Z,4.26
2023-03-31T12:56:07.641Z,4.24
2023-03-31T12:57:07.515Z,4.18
2023-03-31T12:58:07.499Z,4.21
2023-03-31T12:59:07.512Z,4.26
2023-03-31T13:00:07.537Z,4.11
2023-03-31T13:01:07.699Z,4.15
2023-03-31T13:02:07.565Z,4.16
2023-03-31T13:03:07.559Z,4.11
2023-03-31T13:04:07.528Z,4.08
2023-03-31T13:05:07.520Z,4.00
2023-03-31T13:06:07.523Z,3.99
2023-03-31T13:07:17.378Z,3.99
2023-03-31T13:08:08.494Z,4.00
2023-03-31T13:09:07.467Z,4.00
2023-03-31T13:10:07.442Z,3.98
2023-03-31T13:11:07.524Z,3.93
2023-03-31T13:12:07.419Z,3.94
2023-03-31T13:13:07.401Z,3.86
2023-03-31T13:14:07.367Z,3.91
2023-03-31T13:15:07.350Z,3.81
2023-03-31T13:16:07.325Z,3.90
2023-03-31T13:17:07.382Z,3.86
2023-03-31T13:18:07.374Z,3.81